Time;durP1;ratioP1;P1;durP2;ratioP2;P2;SDS_P1;SDS_P2;PMS_P1;PMS_P2;Temp;Humidity;BMP_temperature;BMP_pressure;BME280_temperature;BME280_humidity;BME280_pressure;Samples;Min_cycle;Max_cycle;Signal;HPM_P1;HPM_P2
2022/03/17 00:01:37;;;;;;;33.80;16.23;;;;;;;24.04;14.49;99402.88;5084997;28;20115;-77
2022/03/17 00:04:03;;;;;;;36.50;17.10;;;;;;;24.12;14.37;99400.88;5084565;28;20054;-77
2022/03/17 00:06:29;;;;;;;36.50;17.23;;;;;;;24.07;14.44;99404.09;5082859;28;20126;-77
2022/03/17 00:08:56;;;;;;;38.53;18.20;;;;;;;23.93;14.48;99404.88;5086585;28;20028;-77
2022/03/17 00:11:23;;;;;;;32.83;16.38;;;;;;;23.55;14.60;99410.47;5085148;28;20052;-77
2022/03/17 00:13:49;;;;;;;38.35;17.13;;;;;;;23.60;14.73;99398.84;5087001;28;20032;-78
2022/03/17 00:16:16;;;;;;;35.83;16.67;;;;;;;23.43;15.03;99400.44;5087557;28;20147;-77
2022/03/17 00:18:42;;;;;;;38.25;17.88;;;;;;;23.41;14.78;99402.81;5085006;28;20037;-77
2022/03/17 00:21:08;;;;;;;41.60;19.13;;;;;;;23.39;14.76;99408.03;5084820;28;20032;-77
2022/03/17 00:23:34;;;;;;;44.40;19.00;;;;;;;23.27;15.37;99414.78;5086300;28;20103;-77
2022/03/17 00:26:00;;;;;;;39.78;16.80;;;;;;;23.30;14.80;99414.00;5082675;28;20052;-77
2022/03/17 00:28:26;;;;;;;37.05;17.00;;;;;;;23.48;14.76;99410.47;5081765;28;20118;-77
2022/03/17 00:30:52;;;;;;;40.30;19.27;;;;;;;23.56;14.71;99415.69;5089646;28;20028;-77
2022/03/17 00:33:18;;;;;;;34.80;16.80;;;;;;;23.26;14.72;99413.19;5083265;28;20036;-77
2022/03/17 00:35:44;;;;;;;38.10;17.73;;;;;;;23.13;14.77;99413.94;5082142;28;20131;-77
2022/03/17 00:38:16;;;;;;;36.78;17.77;;;;;;;23.29;14.34;99414.41;5083819;28;20027;-77
2022/03/17 00:40:44;;;;;;;40.00;17.80;;;;;;;23.39;14.58;99408.03;5087053;28;20039;-77
2022/03/17 00:43:12;;;;;;;39.88;18.55;;;;;;;23.58;14.49;99420.88;5081956;28;20093;-77
2022/03/17 00:45:44;;;;;;;39.22;16.85;;;;;;;23.34;14.37;99419.59;5087437;28;20047;-78
2022/03/17 00:48:11;;;;;;;39.20;17.88;;;;;;;23.46;14.57;99424.88;5083590;28;20036;-78
2022/03/17 00:50:37;;;;;;;38.80;16.45;;;;;;;23.51;14.76;99424.47;5082472;28;20059;-77
2022/03/17 00:53:04;;;;;;;46.67;18.50;;;;;;;23.24;14.63;99417.59;5084765;28;20058;-77
2022/03/17 00:55:31;;;;;;;34.55;17.10;;;;;;;23.21;14.15;99426.78;5083338;28;20040;-77
2022/03/17 00:57:57;;;;;;;35.20;17.58;;;;;;;23.38;14.22;99420.47;5085198;28;20226;-77
2022/03/17 01:00:23;;;;;;;37.75;18.30;;;;;;;23.36;13.99;99429.25;5080639;28;20119;-77
2022/03/17 01:02:53;;;;;;;29.15;15.27;;;;;;;23.20;14.04;99431.56;5081339;28;20083;-77
2022/03/17 01:05:20;;;;;;;33.63;17.38;;;;;;;23.08;14.44;99431.94;5086995;28;20036;-77
2022/03/17 01:07:47;;;;;;;38.47;17.00;;;;;;;22.83;14.43;99433.84;5062528;28;20413;-77
2022/03/17 01:10:15;;;;;;;37.00;18.05;;;;;;;23.04;14.26;99430.31;5086847;28;20024;-77
2022/03/17 01:12:46;;;;;;;41.47;17.92;;;;;;;23.19;14.80;99440.38;5083231;28;20032;-77
2022/03/17 01:15:16;;;;;;;43.25;18.10;;;;;;;23.20;14.62;99430.75;5083377;28;20038;-78
2022/03/17 01:17:42;;;;;;;38.88;16.92;;;;;;;22.71;14.83;99444.59;5081106;28;20029;-77
2022/03/17 01:20:10;;;;;;;34.88;15.70;;;;;;;22.10;15.54;99442.56;5085472;28;20059;-77
2022/03/17 01:22:37;;;;;;;38.80;17.17;;;;;;;22.11;15.31;99447.75;5081730;28;20032;-77
2022/03/17 01:25:04;;;;;;;39.50;16.50;;;;;;;22.52;14.97;99449.22;5082189;28;20043;-77
2022/03/17 01:27:31;;;;;;;40.90;18.73;;;;;;;22.81;15.16;99446.63;5090418;28;20508;-78
2022/03/17 01:29:57;;;;;;;43.45;19.55;;;;;;;22.73;15.11;99448.59;5085638;28;20106;-78
2022/03/17 01:32:25;;;;;;;37.63;18.52;;;;;;;22.87;14.64;99445.84;5076916;28;20098;-78
2022/03/17 01:34:51;;;;;;;42.85;18.25;;;;;;;22.81;14.71;99444.63;5081095;28;20061;-78
2022/03/17 01:37:17;;;;;;;37.80;18.13;;;;;;;22.90;14.76;99447.88;5085824;28;20513;-77
2022/03/17 01:39:44;;;;;;;38.85;19.15;;;;;;;22.67;14.69;99441.75;5064906;28;20020;-77
2022/03/17 01:42:10;;;;;;;45.63;19.80;;;;;;;22.66;14.62;99437.38;5083929;28;20020;-77
2022/03/17 01:44:37;;;;;;;42.10;19.20;;;;;;;22.59;14.56;99437.28;5087904;28;20118;-78
2022/03/17 01:49:49;;;;;;;45.17;19.45;;;;;;;21.84;15.62;99440.75;5082432;28;20074;-78
2022/03/17 01:52:15;;;;;;;40.92;18.17;;;;;;;22.05;15.06;99440.94;5083956;28;20477;-77
2022/03/17 01:54:43;;;;;;;37.90;18.67;;;;;;;22.40;14.60;99429.19;5081742;28;20031;-77
2022/03/17 01:57:10;;;;;;;36.70;18.42;;;;;;;22.55;14.62;99428.06;5084674;28;20097;-77
2022/03/17 01:59:38;;;;;;;34.47;17.92;;;;;;;22.74;14.23;99432.59;5066276;28;20060;-77
2022/03/17 02:02:09;;;;;;;43.33;20.48;;;;;;;22.87;14.10;99440.25;5065094;28;20028;-77
2022/03/17 02:04:36;;;;;;;37.25;17.05;;;;;;;22.78;14.30;99447.44;5081912;28;20059;-77
2022/03/17 02:07:05;;;;;;;35.30;17.27;;;;;;;22.90;14.09;99441.47;5082428;28;20062;-77
2022/03/17 02:09:32;;;;;;;41.45;21.02;;;;;;;22.98;14.34;99449.53;5078911;28;21903;-77
2022/03/17 02:14:52;;;;;;;46.05;20.08;;;;;;;22.80;14.11;99443.00;5078200;28;20100;-77
2022/03/17 02:17:18;;;;;;;39.40;19.65;;;;;;;22.64;14.34;99450.94;5082568;28;20489;-78
2022/03/17 02:19:45;;;;;;;39.65;18.98;;;;;;;22.69;14.13;99454.19;5081355;28;20032;-77
2022/03/17 02:22:14;;;;;;;46.05;18.85;;;;;;;22.62;14.19;99451.34;5080746;28;20413;-77
2022/03/17 02:27:32;;;;;;;39.30;20.13;;;;;;;22.34;14.51;99461.50;5080454;28;20055;-77
2022/03/17 02:29:59;;;;;;;43.38;19.05;;;;;;;22.08;15.14;99462.50;5079151;28;20039;-77
2022/03/17 02:32:25;;;;;;;45.75;22.02;;;;;;;22.23;14.72;99471.81;5080803;28;20028;-78
2022/03/17 02:34:54;;;;;;;41.90;21.63;;;;;;;22.32;15.05;99461.09;5076151;28;20608;-78
2022/03/17 02:37:21;;;;;;;44.92;20.52;;;;;;;22.44;14.80;99466.38;5060461;28;20576;-77
2022/03/17 02:39:47;;;;;;;40.05;19.88;;;;;;;22.57;14.59;99470.44;5084083;28;20024;-77
2022/03/17 02:42:13;;;;;;;46.80;20.77;;;;;;;22.74;14.32;99472.59;5066029;28;20028;-77
2022/03/17 02:44:40;;;;;;;39.70;18.52;;;;;;;22.62;14.08;99472.91;5079667;28;20020;-77
2022/03/17 02:47:06;;;;;;;39.03;19.48;;;;;;;22.49;14.49;99477.22;5083849;28;20043;-77
2022/03/17 02:49:33;;;;;;;47.22;21.88;;;;;;;22.44;14.57;99481.19;5079330;28;20032;-77
2022/03/17 02:51:59;;;;;;;46.05;21.17;;;;;;;21.93;14.96;99483.16;5076791;28;20078;-77
2022/03/17 02:54:26;;;;;;;47.28;20.17;;;;;;;21.50;15.01;99489.47;5082819;28;20028;-77
2022/03/17 02:56:52;;;;;;;42.25;19.58;;;;;;;21.26;15.00;99494.41;5084311;28;20493;-77
2022/03/17 02:59:18;;;;;;;41.15;21.25;;;;;;;21.52;14.99;99481.53;5085519;28;20088;-77
2022/03/17 03:01:44;;;;;;;45.63;20.77;;;;;;;21.65;14.96;99488.44;5086932;28;20069;-77
2022/03/17 03:04:13;;;;;;;39.30;19.88;;;;;;;21.69;14.84;99489.28;5084860;28;20369;-77
2022/03/17 03:06:39;;;;;;;47.85;20.92;;;;;;;21.88;14.57;99489.09;5084089;28;20047;-77
2022/03/17 03:09:05;;;;;;;42.25;20.20;;;;;;;21.97;14.30;99489.59;5089047;28;20028;-77
2022/03/17 03:11:31;;;;;;;45.10;20.40;;;;;;;21.98;14.61;99494.00;5087491;28;20039;-77
2022/03/17 03:13:57;;;;;;;44.47;19.95;;;;;;;21.55;14.86;99497.53;5081498;28;20067;-77
2022/03/17 03:16:24;;;;;;;43.53;20.00;;;;;;;21.72;14.49;99494.94;5091229;28;20065;-77
2022/03/17 03:18:50;;;;;;;44.92;20.40;;;;;;;21.92;14.39;99492.72;5089943;28;20039;-77
2022/03/17 03:21:16;;;;;;;46.35;20.33;;;;;;;21.99;14.46;99493.59;5083652;28;20047;-77
2022/03/17 03:23:42;;;;;;;45.08;21.40;;;;;;;22.19;14.29;99493.38;5081885;28;20123;-77
2022/03/17 03:26:08;;;;;;;50.92;21.20;;;;;;;22.31;13.84;99485.47;5088497;28;20050;-77
2022/03/17 03:28:34;;;;;;;45.13;20.70;;;;;;;22.17;14.17;99482.56;5085225;28;20078;-77
2022/03/17 03:31:00;;;;;;;50.55;22.60;;;;;;;22.01;14.70;99496.81;5081843;28;20506;-77
2022/03/17 03:33:26;;;;;;;50.58;21.95;;;;;;;21.52;14.88;99499.09;5087095;28;20028;-77
2022/03/17 03:38:37;;;;;;;50.75;23.88;;;;;;;21.53;15.54;99513.88;5084158;28;20035;-75
2022/03/17 03:41:03;;;;;;;47.95;21.88;;;;;;;21.70;15.25;99508.50;5086819;28;20382;-77
2022/03/17 03:43:32;;;;;;;38.50;18.77;;;;;;;21.79;14.97;99510.97;5095085;28;20111;-77
2022/03/17 03:45:58;;;;;;;49.67;22.77;;;;;;;21.83;14.80;99498.63;5079257;28;20033;-77
2022/03/17 03:48:24;;;;;;;50.30;24.10;;;;;;;22.20;15.02;99508.97;5087790;28;20118;-77
2022/03/17 03:50:51;;;;;;;52.40;22.80;;;;;;;22.39;14.53;99517.91;5084437;28;20040;-77
2022/03/17 03:53:17;;;;;;;41.20;19.52;;;;;;;22.28;14.55;99522.63;5087298;28;20029;-76
2022/03/17 03:55:43;;;;;;;53.45;23.42;;;;;;;22.35;14.47;99528.28;5081111;28;20063;-77
2022/03/17 03:58:09;;;;;;;46.55;23.58;;;;;;;22.47;14.42;99536.38;5081353;28;20035;-77
2022/03/17 04:00:35;;;;;;;43.42;21.02;;;;;;;22.59;13.97;99535.28;5085675;28;20492;-77
2022/03/17 04:03:06;;;;;;;46.80;22.60;;;;;;;22.37;14.21;99531.50;5087336;28;20028;-77
2022/03/17 04:05:33;;;;;;;43.97;21.65;;;;;;;22.03;14.39;99541.19;5060904;28;20554;-77
2022/03/17 04:08:00;;;;;;;42.97;21.17;;;;;;;22.08;14.21;99535.22;5087670;28;20047;-77
2022/03/17 04:10:27;;;;;;;44.90;22.38;;;;;;;22.26;14.17;99550.22;5086424;28;20157;-77
2022/03/17 04:12:54;;;;;;;48.35;22.77;;;;;;;22.24;14.10;99549.75;5084934;28;20040;-77
2022/03/17 04:15:21;;;;;;;46.53;20.90;;;;;;;22.13;13.87;99548.88;5088056;28;20085;-77
2022/03/17 04:17:49;;;;;;;43.75;20.85;;;;;;;22.15;13.77;99560.47;5081647;28;20042;-76
2022/03/17 04:20:15;;;;;;;46.03;22.13;;;;;;;22.29;13.71;99554.19;5091028;28;20028;-77
2022/03/17 04:22:41;;;;;;;47.47;22.38;;;;;;;22.31;13.25;99561.00;5084331;28;20039;-77
2022/03/17 04:25:08;;;;;;;48.83;23.38;;;;;;;22.24;13.34;99557.38;5079953;28;20040;-77
2022/03/17 04:27:34;;;;;;;44.42;21.88;;;;;;;22.17;13.51;99560.09;5088523;28;20036;-77
2022/03/17 04:30:00;;;;;;;50.38;22.67;;;;;;;21.98;14.05;99553.50;5087709;28;20040;-77
2022/03/17 04:32:26;;;;;;;52.35;23.27;;;;;;;21.93;13.87;99562.28;5087110;28;20030;-77
2022/03/17 04:34:52;;;;;;;55.22;23.52;;;;;;;21.76;14.18;99565.66;5084572;28;20433;-77
2022/03/17 04:37:18;;;;;;;53.97;23.40;;;;;;;21.45;14.39;99574.44;5084460;28;20035;-77
2022/03/17 04:39:44;;;;;;;51.30;24.85;;;;;;;21.41;14.18;99579.19;5085312;28;20012;-77
2022/03/17 04:42:11;;;;;;;50.53;24.38;;;;;;;21.67;14.14;99573.53;5088875;28;20031;-77
2022/03/17 04:44:37;;;;;;;54.88;24.65;;;;;;;21.71;14.06;99570.75;5064814;28;20507;-77
2022/03/17 04:47:03;;;;;;;52.97;24.17;;;;;;;21.59;14.42;99571.03;5082174;28;20134;-77
2022/03/17 04:49:29;;;;;;;46.75;22.45;;;;;;;21.34;14.65;99581.91;5082673;28;20040;-77
2022/03/17 04:51:56;;;;;;;51.65;24.20;;;;;;;21.22;14.75;99584.94;5078675;28;20046;-77
2022/03/17 04:54:22;;;;;;;51.80;22.73;;;;;;;20.84;15.23;99585.94;5067745;28;20458;-76
2022/03/17 04:56:48;;;;;;;58.53;27.67;;;;;;;20.70;15.68;99588.50;5062081;28;20859;-76
2022/03/17 04:59:14;;;;;;;57.78;27.52;;;;;;;21.04;16.08;99597.81;5080721;28;20627;-77
2022/03/17 05:01:41;;;;;;;57.63;24.80;;;;;;;21.22;15.55;99593.31;5084896;28;20462;-76
2022/03/17 05:04:07;;;;;;;51.25;24.52;;;;;;;21.10;15.63;99596.31;5085399;28;20047;-77
2022/03/17 05:06:33;;;;;;;53.30;24.77;;;;;;;20.49;16.12;99597.34;5082131;28;20189;-77
2022/03/17 05:08:59;;;;;;;58.90;24.80;;;;;;;20.23;16.57;99591.75;5086209;28;20563;-78
2022/03/17 05:11:25;;;;;;;56.88;26.45;;;;;;;19.67;16.63;99597.03;5081375;28;20073;-77
2022/03/17 05:13:52;;;;;;;51.15;25.40;;;;;;;19.38;17.09;99592.03;5083403;28;20375;-78
2022/03/17 05:16:18;;;;;;;52.17;25.35;;;;;;;19.61;17.49;99581.75;5081262;28;20039;-76
2022/03/17 05:18:44;;;;;;;58.50;26.17;;;;;;;18.76;18.02;99578.28;5080790;28;20383;-76
2022/03/17 05:21:11;;;;;;;61.92;27.35;;;;;;;18.72;18.46;99582.97;5077916;28;20040;-77
2022/03/17 05:23:38;;;;;;;60.67;27.27;;;;;;;19.26;18.32;99581.00;5083977;28;20078;-76
2022/03/17 05:26:04;;;;;;;56.13;27.35;;;;;;;19.30;17.98;99582.69;5082048;28;20131;-76
2022/03/17 05:28:30;;;;;;;68.72;29.23;;;;;;;19.01;18.65;99583.25;5082727;28;20040;-76
2022/03/17 05:30:57;;;;;;;56.45;27.13;;;;;;;19.11;18.58;99585.44;5080455;28;20032;-76
2022/03/17 05:33:23;;;;;;;64.57;30.50;;;;;;;19.54;18.24;99576.06;5074798;28;20039;-77
2022/03/17 05:35:49;;;;;;;69.95;34.03;;;;;;;19.42;18.42;99590.13;5078674;28;20066;-77
2022/03/17 05:38:15;;;;;;;62.42;30.88;;;;;;;19.92;17.87;99580.78;5082143;28;20036;-76
2022/03/17 05:40:41;;;;;;;63.10;29.52;;;;;;;20.24;17.79;99575.78;5080973;28;20039;-77
2022/03/17 05:43:09;;;;;;;58.50;28.15;;;;;;;20.54;17.56;99587.84;5077890;28;20046;-77
2022/03/17 05:45:37;;;;;;;67.05;30.25;;;;;;;20.85;16.98;99595.13;5080408;28;20044;-77
2022/03/17 05:48:06;;;;;;;51.60;27.30;;;;;;;21.39;16.58;99595.53;5081193;28;20093;-78
2022/03/17 05:50:37;;;;;;;52.05;27.52;;;;;;;21.87;16.15;99585.34;5068032;28;20032;-78
2022/03/17 05:53:04;;;;;;;56.08;23.45;;;;;;;22.39;15.61;99601.06;5080910;28;20041;-78
2022/03/17 05:55:31;;;;;;;56.65;26.15;;;;;;;22.80;15.28;99601.84;5077174;28;20031;-78
2022/03/17 05:57:57;;;;;;;66.45;28.90;;;;;;;21.80;16.34;99610.41;5084435;28;20032;-78
2022/03/17 06:00:27;;;;;;;62.80;29.83;;;;;;;20.82;17.28;99610.66;5079411;28;20089;-78
2022/03/17 06:02:54;;;;;;;59.45;29.05;;;;;;;20.87;17.64;99609.50;5082360;28;20024;-78
2022/03/17 06:05:21;;;;;;;55.10;27.10;;;;;;;21.67;16.80;99617.44;5083892;28;20123;-78
2022/03/17 06:07:50;;;;;;;54.88;25.48;;;;;;;22.09;16.48;99611.56;5076982;28;20082;-77
2022/03/17 06:10:18;;;;;;;55.92;26.73;;;;;;;22.43;16.05;99610.28;5088706;28;20023;-79
2022/03/17 06:12:45;;;;;;;54.03;26.80;;;;;;;22.84;15.83;99619.47;5084395;28;23431;-78
2022/03/17 06:15:12;;;;;;;58.63;27.77;;;;;;;22.85;15.85;99616.28;5080693;28;20040;-78
2022/03/17 06:17:41;;;;;;;52.88;25.15;;;;;;;23.21;15.34;99617.31;5064540;28;20032;-79
2022/03/17 06:20:11;;;;;;;52.22;26.85;;;;;;;23.12;15.67;99608.47;5083801;28;20587;-78
2022/03/17 06:22:45;;;;;;;55.53;27.48;;;;;;;23.01;16.06;99616.00;5079364;28;20046;-78
2022/03/17 06:25:14;;;;;;;53.92;26.58;;;;;;;23.02;15.88;99604.41;5084634;28;20029;-78
2022/03/17 06:27:43;;;;;;;52.97;26.85;;;;;;;22.90;16.27;99604.72;5078931;28;20036;-78
2022/03/17 06:30:12;;;;;;;62.60;30.63;;;;;;;22.62;16.44;99605.31;5078604;28;20032;-78
2022/03/17 06:32:39;;;;;;;62.95;27.90;;;;;;;22.16;17.06;99608.84;5081647;28;20051;-78
2022/03/17 06:35:10;;;;;;;57.95;28.42;;;;;;;22.55;16.43;99610.81;5077836;28;20029;-78
2022/03/17 06:37:37;;;;;;;;;;;;;;;23.34;16.19;99610.19;5080243;28;20035;-78
2022/03/17 06:40:05;;;;;;;67.38;31.77;;;;;;;23.26;16.08;99616.97;5080179;28;19917;-78
2022/03/17 06:42:31;;;;;;;52.92;24.52;;;;;;;23.26;15.95;99609.38;5079289;28;20028;-78
2022/03/17 06:44:57;;;;;;;52.15;27.17;;;;;;;22.76;16.83;99615.00;5079915;28;20081;-78
2022/03/17 06:47:23;;;;;;;49.40;25.85;;;;;;;22.68;16.87;99617.75;5080891;28;20040;-78
2022/03/17 06:49:50;;;;;;;48.28;24.92;;;;;;;22.78;16.75;99609.84;5083420;28;20030;-79
2022/03/17 06:52:16;;;;;;;54.03;26.55;;;;;;;23.18;16.66;99615.28;5084682;28;20104;-78
2022/03/17 06:54:42;;;;;;;71.63;35.17;;;;;;;21.18;17.69;99624.00;5070817;28;20426;-78
2022/03/17 06:57:08;;;;;;;49.78;25.08;;;;;;;21.83;17.95;99627.25;5082454;28;20020;-79
2022/03/17 06:59:34;;;;;;;51.83;25.02;;;;;;;21.84;17.98;99634.44;5077138;28;20448;-79
2022/03/17 07:02:00;;;;;;;43.40;25.25;;;;;;;22.26;17.28;99628.53;5084186;28;20030;-79
2022/03/17 07:04:26;;;;;;;48.47;26.35;;;;;;;20.99;18.98;99634.44;5084711;28;20024;-79
2022/03/17 07:06:52;;;;;;;45.33;23.63;;;;;;;21.95;18.08;99642.97;5080338;28;20036;-79
2022/03/17 07:09:18;;;;;;;72.85;35.55;;;;;;;20.13;18.97;99639.72;5080357;28;20028;-79
2022/03/17 07:11:46;;;;;;;55.40;29.20;;;;;;;20.76;19.61;99651.22;5079990;28;20056;-79
2022/03/17 07:14:12;;;;;;;46.05;23.60;;;;;;;21.44;18.56;99653.09;5079661;28;20502;-79
2022/03/17 07:16:39;;;;;;;44.80;24.52;;;;;;;21.66;18.27;99652.97;5081196;28;20111;-79
2022/03/17 07:19:05;;;;;;;49.53;28.15;;;;;;;20.93;18.74;99656.31;5083582;28;20045;-79
2022/03/17 07:21:31;;;;;;;55.25;28.05;;;;;;;20.19;20.00;99662.53;5079634;28;20088;-78
2022/03/17 07:23:57;;;;;;;51.42;24.75;;;;;;;20.89;19.14;99658.22;5080651;28;20037;-78
2022/03/17 07:26:23;;;;;;;44.67;24.75;;;;;;;22.19;18.16;99664.03;5078988;28;20094;-78
2022/03/17 07:28:49;;;;;;;45.70;23.52;;;;;;;22.81;17.45;99662.25;5083676;28;20089;-78
2022/03/17 07:31:15;;;;;;;45.28;22.55;;;;;;;22.80;17.24;99666.25;5077588;28;20067;-78
2022/03/17 07:33:43;;;;;;;41.97;21.88;;;;;;;22.60;18.02;99669.28;5066125;28;20028;-79
2022/03/17 07:36:09;;;;;;;44.42;23.38;;;;;;;22.91;17.18;99659.56;5078094;28;20081;-78
2022/03/17 07:38:35;;;;;;;59.08;30.55;;;;;;;21.62;18.37;99668.09;5081538;28;20111;-78
2022/03/17 07:41:01;;;;;;;48.40;23.42;;;;;;;22.35;18.26;99662.63;5082346;28;20519;-79
2022/03/17 07:43:27;;;;;;;44.65;23.73;;;;;;;21.68;18.18;99661.00;5085805;28;20409;-78
2022/03/17 07:45:53;;;;;;;42.05;23.38;;;;;;;21.66;18.49;99668.94;5065020;28;20040;-79
2022/03/17 07:48:20;;;;;;;47.75;27.08;;;;;;;20.31;19.67;99662.38;5088954;28;20028;-79
2022/03/17 07:50:46;;;;;;;59.00;32.60;;;;;;;20.14;20.28;99676.78;5082381;28;20126;-78
2022/03/17 07:53:12;;;;;;;54.92;27.85;;;;;;;19.82;20.76;99676.94;5086189;28;20028;-79
2022/03/17 07:55:40;;;;;;;56.25;27.95;;;;;;;20.10;19.65;99687.03;5084787;28;20038;-78
2022/03/17 07:58:07;;;;;;;49.63;27.08;;;;;;;19.68;21.08;99692.56;5085006;28;20025;-79
2022/03/17 08:00:33;;;;;;;48.83;27.88;;;;;;;20.02;19.85;99688.91;5085550;28;20048;-79
2022/03/17 08:03:00;;;;;;;51.97;27.58;;;;;;;19.72;20.61;99690.66;5085165;28;20021;-79
2022/03/17 08:05:26;;;;;;;58.00;30.73;;;;;;;21.47;19.09;99683.84;5083598;28;20036;-78
2022/03/17 08:07:53;;;;;;;47.97;25.38;;;;;;;22.28;17.66;99687.72;5084015;28;20034;-79
2022/03/17 08:10:19;;;;;;;44.58;22.73;;;;;;;23.11;16.76;99686.09;5080224;28;20563;-79
2022/03/17 08:12:46;;;;;;;43.35;24.15;;;;;;;23.05;17.47;99684.88;5078829;28;20033;-79
2022/03/17 08:15:13;;;;;;;41.20;21.67;;;;;;;23.00;17.00;99688.03;5083339;28;20089;-79
2022/03/17 08:17:40;;;;;;;44.13;24.27;;;;;;;22.43;17.36;99686.66;5088911;28;20020;-79
2022/03/17 08:20:06;;;;;;;35.20;19.67;;;;;;;23.63;16.50;99687.69;5063051;28;20028;-79
2022/03/17 08:22:34;;;;;;;36.60;19.23;;;;;;;22.92;16.64;99689.16;5085719;28;20063;-78
2022/03/17 08:25:00;;;;;;;44.55;22.83;;;;;;;22.98;16.92;99690.41;5088796;28;20028;-79
2022/03/17 08:27:26;;;;;;;38.97;22.27;;;;;;;21.78;17.55;99689.09;5089137;28;20127;-79
2022/03/17 08:29:52;;;;;;;41.63;19.80;;;;;;;23.24;16.73;99686.63;5082621;28;20115;-79
2022/03/17 08:32:18;;;;;;;32.15;18.55;;;;;;;23.12;15.97;99679.31;5070001;28;20031;-79
2022/03/17 08:34:44;;;;;;;29.15;15.50;;;;;;;24.00;15.23;99690.25;5092281;28;20036;-79
2022/03/17 08:37:11;;;;;;;34.28;18.38;;;;;;;23.14;16.01;99690.13;5082274;28;20034;-79
2022/03/17 08:39:38;;;;;;;28.50;16.58;;;;;;;23.37;15.84;99685.13;5082244;28;20461;-79
2022/03/17 08:42:04;;;;;;;28.13;14.93;;;;;;;23.84;15.87;99690.59;5067470;28;20024;-79
2022/03/17 08:44:31;;;;;;;30.65;14.68;;;;;;;22.62;16.59;99696.88;5084386;28;20072;-79
2022/03/17 08:49:41;;;;;;;25.02;13.85;;;;;;;20.04;18.90;99699.69;5083592;28;20039;-79
2022/03/17 08:52:07;;;;;;;26.85;14.90;;;;;;;20.14;18.79;99708.25;5079401;28;20115;-79
2022/03/17 08:54:35;;;;;;;25.58;14.18;;;;;;;19.91;19.25;99690.66;5084838;28;20515;-79
2022/03/17 08:57:03;;;;;;;32.05;18.25;;;;;;;20.99;17.78;99702.25;5081097;28;20393;-79
2022/03/17 08:59:31;;;;;;;27.10;15.95;;;;;;;21.74;17.09;99699.41;5081813;28;20559;-79
2022/03/17 09:01:58;;;;;;;28.73;16.23;;;;;;;19.61;18.30;99709.13;5087022;28;20100;-79
2022/03/17 09:04:24;;;;;;;31.42;16.50;;;;;;;19.12;19.23;99700.41;5080427;28;20039;-79
2022/03/17 09:06:51;;;;;;;31.88;17.70;;;;;;;19.04;19.29;99709.78;5071393;28;20033;-79
2022/03/17 09:09:17;;;;;;;33.72;17.95;;;;;;;16.89;21.63;99712.66;5080616;28;20090;-79
2022/03/17 09:11:45;;;;;;;29.83;16.30;;;;;;;17.22;22.01;99716.09;5086576;28;20032;-79
2022/03/17 09:14:13;;;;;;;26.38;15.32;;;;;;;18.49;20.57;99719.88;5084565;28;20023;-79
2022/03/17 09:16:40;;;;;;;24.90;14.43;;;;;;;19.54;19.25;99712.56;5080599;28;20024;-80
2022/03/17 09:19:06;;;;;;;26.58;14.85;;;;;;;19.69;19.39;99700.56;5083442;28;20107;-79
2022/03/17 09:21:32;;;;;;;28.23;16.40;;;;;;;17.47;20.45;99724.41;5077152;28;20086;-79
2022/03/17 09:23:59;;;;;;;25.50;15.32;;;;;;;16.20;22.36;99717.34;5085216;28;20028;-79
2022/03/17 09:26:26;;;;;;;25.27;14.55;;;;;;;16.23;22.51;99723.03;5077320;28;21221;-79
2022/03/17 09:28:53;;;;;;;27.23;15.18;;;;;;;17.20;21.75;99717.59;5086450;28;20033;-79
2022/03/17 09:31:19;;;;;;;21.45;12.93;;;;;;;18.03;20.42;99728.91;5078378;28;20032;-79
2022/03/17 09:33:45;;;;;;;24.83;13.90;;;;;;;16.79;21.92;99724.19;5084375;28;20042;-79
2022/03/17 09:36:11;;;;;;;23.10;12.63;;;;;;;16.83;21.16;99716.81;5089108;28;20064;-79
2022/03/17 09:38:37;;;;;;;20.15;12.52;;;;;;;17.99;20.18;99716.88;5083384;28;20032;-79
2022/03/17 09:41:23;;;;;;;19.35;11.48;;;;;;;19.98;17.74;99713.09;5084164;28;20447;-79
2022/03/17 09:43:52;;;;;;;17.15;10.35;;;;;;;21.60;16.13;99712.38;5081286;28;20080;-79
2022/03/17 09:46:23;;;;;;;20.13;11.63;;;;;;;19.31;18.06;99717.97;5081122;28;20093;-80
2022/03/17 09:48:54;;;;;;;19.90;11.20;;;;;;;20.75;17.06;99708.22;5079340;28;20044;-79
2022/03/17 09:51:24;;;;;;;16.35;10.35;;;;;;;20.30;17.51;99722.16;5082138;28;20289;-79
2022/03/17 09:53:53;;;;;;;14.45;9.95;;;;;;;21.04;16.92;99718.75;5081005;28;20074;-79
2022/03/17 09:56:23;;;;;;;15.40;8.63;;;;;;;20.85;16.07;99715.19;5081122;28;20024;-79
2022/03/17 09:58:53;;;;;;;23.42;10.40;;;;;;;21.84;16.09;99715.53;5081617;28;20032;-79
2022/03/17 10:01:20;;;;;;;22.15;10.80;;;;;;;19.38;17.36;99722.94;5082949;28;20023;-79
2022/03/17 10:03:47;;;;;;;15.50;10.15;;;;;;;19.22;17.73;99714.59;5087407;28;20036;-79
2022/03/17 10:06:17;;;;;;;17.27;10.38;;;;;;;18.44;19.01;99716.53;5085132;28;20158;-80
2022/03/17 10:08:45;;;;;;;15.52;9.38;;;;;;;19.38;18.25;99706.22;5083360;28;20127;-79
2022/03/17 10:11:18;;;;;;;16.80;10.70;;;;;;;18.21;18.54;99712.72;5081425;28;20453;-79
2022/03/17 10:13:46;;;;;;;15.73;9.18;;;;;;;18.75;18.61;99713.00;5082397;28;20119;-79
2022/03/17 10:16:18;;;;;;;18.38;10.00;;;;;;;20.73;16.82;99710.59;5078172;28;20032;-79
2022/03/17 10:18:48;;;;;;;15.77;8.65;;;;;;;21.63;15.67;99711.66;5080442;28;20031;-79
2022/03/17 10:21:24;;;;;;;15.10;10.63;;;;;;;20.65;16.91;99709.66;5082439;28;20028;-80
2022/03/17 10:24:02;;;;;;;14.90;9.25;;;;;;;20.51;16.98;99705.81;5081923;28;20371;-79
2022/03/17 10:26:51;;;;;;;13.55;8.38;;;;;;;21.93;15.35;99696.50;5079798;28;20039;-79
2022/03/17 10:29:20;;;;;;;16.92;9.95;;;;;;;20.43;16.42;99693.72;5083949;28;20076;-79
2022/03/17 10:31:55;;;;;;;14.48;8.15;;;;;;;22.00;15.95;99693.00;5080666;28;20032;-79
2022/03/17 10:34:23;;;;;;;14.43;9.27;;;;;;;21.75;15.75;99680.66;5085345;28;20157;-80
2022/03/17 10:36:50;;;;;;;12.85;8.02;;;;;;;22.25;15.83;99708.06;5084824;28;20051;-79
2022/03/17 10:39:17;;;;;;;13.23;8.57;;;;;;;21.19;15.42;99705.81;5082793;28;20123;-80
2022/03/17 10:41:45;;;;;;;14.27;8.63;;;;;;;20.91;15.84;99697.72;5077638;28;20024;-79
2022/03/17 10:44:13;;;;;;;12.90;7.80;;;;;;;20.61;16.22;99694.03;5077140;28;20081;-79
2022/03/17 10:47:01;;;;;;;11.23;8.23;;;;;;;20.50;17.12;99702.22;5083388;28;20036;-79
2022/03/17 10:49:28;;;;;;;12.27;8.38;;;;;;;21.28;16.54;99700.75;5081879;28;20032;-80
2022/03/17 10:51:55;;;;;;;15.48;9.20;;;;;;;22.40;15.83;99703.44;5080647;28;20019;-80
2022/03/17 10:54:23;;;;;;;13.07;8.55;;;;;;;22.74;15.23;99695.78;5082668;28;20025;-79
2022/03/17 10:57:02;;;;;;;14.80;8.40;;;;;;;21.67;14.97;99699.31;5078634;28;20363;-80
2022/03/17 10:59:47;;;;;;;12.32;8.00;;;;;;;22.84;14.67;99695.91;5080571;28;20114;-79
2022/03/17 11:02:17;;;;;;;15.98;8.45;;;;;;;23.97;15.00;99696.66;5080038;28;20081;-80
2022/03/17 11:04:45;;;;;;;13.90;9.00;;;;;;;23.25;14.58;99693.81;5087569;28;20045;-80
2022/03/17 11:07:14;;;;;;;16.15;9.65;;;;;;;21.70;15.92;99700.56;5082907;28;20032;-79
2022/03/17 11:09:42;;;;;;;11.45;7.38;;;;;;;23.45;15.28;99688.78;5068925;28;20451;-79
2022/03/17 11:12:09;;;;;;;11.75;7.35;;;;;;;23.78;14.24;99692.16;5083528;28;20028;-79
2022/03/17 11:14:42;;;;;;;11.48;7.38;;;;;;;24.24;13.89;99691.56;5082016;28;20543;-80
2022/03/17 11:17:23;;;;;;;17.33;10.45;;;;;;;20.70;16.14;99689.00;5081394;28;20023;-80
2022/03/17 11:19:49;;;;;;;17.63;10.73;;;;;;;18.69;19.14;99701.34;5082377;28;20046;-80
2022/03/17 11:22:22;;;;;;;13.75;8.57;;;;;;;20.33;18.51;99701.88;5082060;28;20020;-80
2022/03/17 11:25:25;;;;;;;15.63;7.43;;;;;;;22.76;15.35;99691.41;5087387;28;20033;-80
2022/03/17 11:27:57;;;;;;;13.40;9.07;;;;;;;21.82;15.55;99701.09;5086371;28;20078;-79
2022/03/17 11:30:40;;;;;;;14.38;8.70;;;;;;;21.66;16.98;99694.91;5081802;28;20096;-80
2022/03/17 11:33:21;;;;;;;12.27;7.32;;;;;;;22.67;15.47;99700.16;5088084;28;20036;-79
2022/03/17 11:36:01;;;;;;;13.40;7.70;;;;;;;23.42;14.47;99692.34;5082653;28;20043;-80